X  Κλείσε Στοιχεία αεροπορικών μετεωρολογικών δεδομένων METAR        LGTS Thessaloniki Macedonia International
θερμοκρασία
16°C θερμοκρασία
10°C Σημείο δρόσου
68% Υγρασία



Ανεμος
4 M/S
9 MPH
15 KM/H
8 KTS



190°
N
Τρέχουσες συνθήκες

Mostly Sunny Κυρίως αίθριος
πίεση 1013 (hPa) - 29.91 (inHg)
Ορατότητα 6 (μίλι) - 10 (km)
Aεροδρόμιο
Κωδικός αεροδρομίου LGTS

Τοποθεσία: Thessaloniki Macedonia International
Απόσταση: 85 (km)

Metar:
METAR LGTS 031150Z 19008KT 140V250 9999 FEW020 16/10 Q1013 NOSIG

ώρα: 03-03-2024 13:50 EET